sensor_id;sensor_type;location;lat;lon;timestamp;temperature;humidity
11908;DHT22;6014;47.690;9.130;2023-03-16T00:00:08;-0.10;99.90
11908;DHT22;6014;47.690;9.130;2023-03-16T00:02:41;-0.10;99.90
11908;DHT22;6014;47.690;9.130;2023-03-16T00:05:16;0.00;99.90
11908;DHT22;6014;47.690;9.130;2023-03-16T00:07:44;0.10;99.90
11908;DHT22;6014;47.690;9.130;2023-03-16T00:10:13;0.10;99.90
11908;DHT22;6014;47.690;9.130;2023-03-16T00:12:41;0.10;99.90
11908;DHT22;6014;47.690;9.130;2023-03-16T00:15:11;0.20;99.90
11908;DHT22;6014;47.690;9.130;2023-03-16T00:17:40;0.20;99.90
11908;DHT22;6014;47.690;9.130;2023-03-16T00:20:14;0.20;99.90
11908;DHT22;6014;47.690;9.130;2023-03-16T00:22:43;0.20;99.90
11908;DHT22;6014;47.690;9.130;2023-03-16T00:25:13;0.00;99.90
11908;DHT22;6014;47.690;9.130;2023-03-16T00:27:43;0.20;99.90
11908;DHT22;6014;47.690;9.130;2023-03-16T00:30:12;0.30;99.90
11908;DHT22;6014;47.690;9.130;2023-03-16T00:32:41;0.30;99.90
11908;DHT22;6014;47.690;9.130;2023-03-16T00:35:09;0.20;99.90
11908;DHT22;6014;47.690;9.130;2023-03-16T00:37:37;0.10;99.90
11908;DHT22;6014;47.690;9.130;2023-03-16T00:40:07;0.10;99.90
11908;DHT22;6014;47.690;9.130;2023-03-16T00:42:37;0.00;99.90
11908;DHT22;6014;47.690;9.130;2023-03-16T00:45:07;0.00;99.90
11908;DHT22;6014;47.690;9.130;2023-03-16T00:47:53;0.00;99.90
11908;DHT22;6014;47.690;9.130;2023-03-16T00:50:21;0.00;99.90
11908;DHT22;6014;47.690;9.130;2023-03-16T00:52:49;-0.10;99.90
11908;DHT22;6014;47.690;9.130;2023-03-16T00:55:19;0.00;99.90
11908;DHT22;6014;47.690;9.130;2023-03-16T00:57:47;0.00;99.90
11908;DHT22;6014;47.690;9.130;2023-03-16T01:00:16;-0.10;99.90
11908;DHT22;6014;47.690;9.130;2023-03-16T01:02:47;-0.10;99.90
11908;DHT22;6014;47.690;9.130;2023-03-16T01:05:17;-0.20;99.90
11908;DHT22;6014;47.690;9.130;2023-03-16T01:07:45;-0.20;99.90
11908;DHT22;6014;47.690;9.130;2023-03-16T01:10:13;-0.30;99.90
11908;DHT22;6014;47.690;9.130;2023-03-16T01:12:43;-0.30;99.90
11908;DHT22;6014;47.690;9.130;2023-03-16T01:15:11;-0.30;99.90
11908;DHT22;6014;47.690;9.130;2023-03-16T01:17:40;-0.40;99.90
11908;DHT22;6014;47.690;9.130;2023-03-16T01:20:10;-0.40;99.90
11908;DHT22;6014;47.690;9.130;2023-03-16T01:22:41;-0.40;99.90
11908;DHT22;6014;47.690;9.130;2023-03-16T01:25:10;-0.50;99.90
11908;DHT22;6014;47.690;9.130;2023-03-16T01:27:38;-0.50;99.90
11908;DHT22;6014;47.690;9.130;2023-03-16T01:30:09;-0.50;99.90
11908;DHT22;6014;47.690;9.130;2023-03-16T01:32:38;-0.50;99.90
11908;DHT22;6014;47.690;9.130;2023-03-16T01:35:07;-0.50;99.90
11908;DHT22;6014;47.690;9.130;2023-03-16T01:37:36;-0.50;99.90
11908;DHT22;6014;47.690;9.130;2023-03-16T01:40:06;-0.50;99.90
11908;DHT22;6014;47.690;9.130;2023-03-16T01:42:43;-0.50;99.90
11908;DHT22;6014;47.690;9.130;2023-03-16T01:48:19;-0.50;99.90
11908;DHT22;6014;47.690;9.130;2023-03-16T01:50:50;-0.40;99.90
11908;DHT22;6014;47.690;9.130;2023-03-16T01:53:19;-0.60;99.90
11908;DHT22;6014;47.690;9.130;2023-03-16T01:55:50;-0.60;99.90
11908;DHT22;6014;47.690;9.130;2023-03-16T01:58:21;-0.50;99.90
11908;DHT22;6014;47.690;9.130;2023-03-16T02:00:49;-0.60;99.90
11908;DHT22;6014;47.690;9.130;2023-03-16T02:03:20;0.00;99.90
11908;DHT22;6014;47.690;9.130;2023-03-16T02:05:51;-0.60;99.90
11908;DHT22;6014;47.690;9.130;2023-03-16T02:08:21;-0.60;99.90
11908;DHT22;6014;47.690;9.130;2023-03-16T02:10:51;-0.60;99.90
11908;DHT22;6014;47.690;9.130;2023-03-16T02:13:21;-0.80;99.90
11908;DHT22;6014;47.690;9.130;2023-03-16T02:15:50;-0.70;99.90
11908;DHT22;6014;47.690;9.130;2023-03-16T02:18:19;-0.20;99.90
11908;DHT22;6014;47.690;9.130;2023-03-16T02:20:53;-0.70;99.90
11908;DHT22;6014;47.690;9.130;2023-03-16T02:23:24;-1.30;99.90
11908;DHT22;6014;47.690;9.130;2023-03-16T02:26:01;-0.70;99.90
11908;DHT22;6014;47.690;9.130;2023-03-16T02:28:34;-0.70;99.90
11908;DHT22;6014;47.690;9.130;2023-03-16T02:31:05;-0.20;99.90
11908;DHT22;6014;47.690;9.130;2023-03-16T02:33:34;-0.70;99.90
11908;DHT22;6014;47.690;9.130;2023-03-16T02:36:03;-0.70;99.90
11908;DHT22;6014;47.690;9.130;2023-03-16T02:38:32;-0.70;99.90
11908;DHT22;6014;47.690;9.130;2023-03-16T02:41:10;-0.70;99.90
11908;DHT22;6014;47.690;9.130;2023-03-16T02:43:40;-0.70;99.90
11908;DHT22;6014;47.690;9.130;2023-03-16T02:46:10;-0.70;99.90
11908;DHT22;6014;47.690;9.130;2023-03-16T02:48:43;-0.60;99.90
11908;DHT22;6014;47.690;9.130;2023-03-16T02:51:13;-0.60;99.90
11908;DHT22;6014;47.690;9.130;2023-03-16T02:53:41;-0.70;99.90
11908;DHT22;6014;47.690;9.130;2023-03-16T02:56:09;-0.90;99.90
11908;DHT22;6014;47.690;9.130;2023-03-16T02:58:37;-0.90;99.90
11908;DHT22;6014;47.690;9.130;2023-03-16T03:01:05;-0.80;99.90
11908;DHT22;6014;47.690;9.130;2023-03-16T03:03:35;-1.10;99.90
11908;DHT22;6014;47.690;9.130;2023-03-16T03:06:03;-1.10;99.90
11908;DHT22;6014;47.690;9.130;2023-03-16T03:08:34;-1.10;99.90
11908;DHT22;6014;47.690;9.130;2023-03-16T03:11:02;-0.90;99.90
11908;DHT22;6014;47.690;9.130;2023-03-16T03:13:30;-1.10;99.90
11908;DHT22;6014;47.690;9.130;2023-03-16T03:15:58;-1.00;99.90
11908;DHT22;6014;47.690;9.130;2023-03-16T03:18:27;-1.10;99.90
11908;DHT22;6014;47.690;9.130;2023-03-16T03:20:56;-1.80;99.90
11908;DHT22;6014;47.690;9.130;2023-03-16T03:23:24;-1.00;99.90
11908;DHT22;6014;47.690;9.130;2023-03-16T03:25:56;-0.80;99.90
11908;DHT22;6014;47.690;9.130;2023-03-16T03:28:25;-1.00;99.90
11908;DHT22;6014;47.690;9.130;2023-03-16T03:30:53;-1.00;99.90
11908;DHT22;6014;47.690;9.130;2023-03-16T03:33:21;-1.00;99.90
11908;DHT22;6014;47.690;9.130;2023-03-16T03:35:53;-1.00;99.90
11908;DHT22;6014;47.690;9.130;2023-03-16T03:38:24;-1.00;99.90
11908;DHT22;6014;47.690;9.130;2023-03-16T03:40:53;-1.10;99.90
11908;DHT22;6014;47.690;9.130;2023-03-16T03:43:24;-1.10;99.90
11908;DHT22;6014;47.690;9.130;2023-03-16T03:45:55;-1.20;99.90
11908;DHT22;6014;47.690;9.130;2023-03-16T03:48:24;-1.10;99.90
11908;DHT22;6014;47.690;9.130;2023-03-16T03:50:52;-1.10;99.90
11908;DHT22;6014;47.690;9.130;2023-03-16T03:53:21;-1.20;99.90
11908;DHT22;6014;47.690;9.130;2023-03-16T03:55:50;-1.30;99.90
11908;DHT22;6014;47.690;9.130;2023-03-16T03:58:18;-1.00;99.90
11908;DHT22;6014;47.690;9.130;2023-03-16T04:00:46;-1.10;99.90
11908;DHT22;6014;47.690;9.130;2023-03-16T04:03:14;-1.10;99.90
11908;DHT22;6014;47.690;9.130;2023-03-16T04:05:43;-1.10;99.90
11908;DHT22;6014;47.690;9.130;2023-03-16T04:08:11;-1.10;99.90
11908;DHT22;6014;47.690;9.130;2023-03-16T04:10:39;-1.00;99.90
11908;DHT22;6014;47.690;9.130;2023-03-16T04:13:09;-0.80;99.90
11908;DHT22;6014;47.690;9.130;2023-03-16T04:15:37;-1.00;99.90
11908;DHT22;6014;47.690;9.130;2023-03-16T04:18:05;-1.10;99.90
11908;DHT22;6014;47.690;9.130;2023-03-16T04:20:33;-1.20;99.90
11908;DHT22;6014;47.690;9.130;2023-03-16T04:23:02;-1.30;99.90
11908;DHT22;6014;47.690;9.130;2023-03-16T04:25:31;-1.20;99.90
11908;DHT22;6014;47.690;9.130;2023-03-16T04:27:59;-1.20;99.90
11908;DHT22;6014;47.690;9.130;2023-03-16T04:30:29;-1.30;99.90
11908;DHT22;6014;47.690;9.130;2023-03-16T04:32:57;-1.20;99.90
11908;DHT22;6014;47.690;9.130;2023-03-16T04:35:25;-1.30;99.90
11908;DHT22;6014;47.690;9.130;2023-03-16T04:37:53;-1.40;99.90
11908;DHT22;6014;47.690;9.130;2023-03-16T04:40:21;-1.30;99.90
11908;DHT22;6014;47.690;9.130;2023-03-16T04:42:52;-1.00;99.90
11908;DHT22;6014;47.690;9.130;2023-03-16T04:45:20;-1.20;99.90
11908;DHT22;6014;47.690;9.130;2023-03-16T04:47:49;-1.40;99.90
11908;DHT22;6014;47.690;9.130;2023-03-16T04:50:17;-1.50;99.90
11908;DHT22;6014;47.690;9.130;2023-03-16T04:52:45;-1.30;99.90
11908;DHT22;6014;47.690;9.130;2023-03-16T04:55:13;-1.00;99.90
11908;DHT22;6014;47.690;9.130;2023-03-16T04:57:41;-1.30;99.90
11908;DHT22;6014;47.690;9.130;2023-03-16T05:00:10;-1.20;99.90
11908;DHT22;6014;47.690;9.130;2023-03-16T05:02:44;-1.30;99.90
11908;DHT22;6014;47.690;9.130;2023-03-16T05:05:14;-1.40;99.90
11908;DHT22;6014;47.690;9.130;2023-03-16T05:07:43;-1.30;99.90
11908;DHT22;6014;47.690;9.130;2023-03-16T05:10:13;-1.40;99.90
11908;DHT22;6014;47.690;9.130;2023-03-16T05:12:41;-1.30;99.90
11908;DHT22;6014;47.690;9.130;2023-03-16T05:15:10;-1.30;99.90
11908;DHT22;6014;47.690;9.130;2023-03-16T05:17:38;-1.40;99.90
11908;DHT22;6014;47.690;9.130;2023-03-16T05:20:09;-1.30;99.90
11908;DHT22;6014;47.690;9.130;2023-03-16T05:22:44;-1.30;99.90
11908;DHT22;6014;47.690;9.130;2023-03-16T05:25:14;-0.40;99.90
11908;DHT22;6014;47.690;9.130;2023-03-16T05:27:43;-1.40;99.90
11908;DHT22;6014;47.690;9.130;2023-03-16T05:30:13;-1.40;99.90
11908;DHT22;6014;47.690;9.130;2023-03-16T05:32:42;-1.30;99.90
11908;DHT22;6014;47.690;9.130;2023-03-16T05:35:11;-1.40;99.90
11908;DHT22;6014;47.690;9.130;2023-03-16T05:37:40;-1.40;99.90
11908;DHT22;6014;47.690;9.130;2023-03-16T05:40:12;-1.40;99.90
11908;DHT22;6014;47.690;9.130;2023-03-16T05:42:43;-1.40;99.90
11908;DHT22;6014;47.690;9.130;2023-03-16T05:45:13;-1.20;99.90
11908;DHT22;6014;47.690;9.130;2023-03-16T05:47:41;-1.30;99.90
11908;DHT22;6014;47.690;9.130;2023-03-16T05:50:11;-1.30;99.90
11908;DHT22;6014;47.690;9.130;2023-03-16T05:52:39;-1.30;99.90
11908;DHT22;6014;47.690;9.130;2023-03-16T05:55:10;-1.10;99.90
11908;DHT22;6014;47.690;9.130;2023-03-16T05:57:38;-1.30;99.90
11908;DHT22;6014;47.690;9.130;2023-03-16T06:00:08;-1.00;99.90
11908;DHT22;6014;47.690;9.130;2023-03-16T06:02:40;-1.30;99.90
11908;DHT22;6014;47.690;9.130;2023-03-16T06:05:08;-1.30;99.90
11908;DHT22;6014;47.690;9.130;2023-03-16T06:07:37;-1.30;99.90
11908;DHT22;6014;47.690;9.130;2023-03-16T06:10:05;-1.20;99.90
11908;DHT22;6014;47.690;9.130;2023-03-16T06:12:35;-1.20;99.90
11908;DHT22;6014;47.690;9.130;2023-03-16T06:15:04;-1.10;99.90
11908;DHT22;6014;47.690;9.130;2023-03-16T06:17:33;-1.10;99.90
11908;DHT22;6014;47.690;9.130;2023-03-16T06:20:02;-1.10;99.90
11908;DHT22;6014;47.690;9.130;2023-03-16T06:22:36;-0.90;99.90
11908;DHT22;6014;47.690;9.130;2023-03-16T06:25:06;-0.90;99.90
11908;DHT22;6014;47.690;9.130;2023-03-16T06:27:37;-0.80;99.90
11908;DHT22;6014;47.690;9.130;2023-03-16T06:30:07;-0.70;99.90
11908;DHT22;6014;47.690;9.130;2023-03-16T06:32:35;-0.60;99.90
11908;DHT22;6014;47.690;9.130;2023-03-16T06:35:04;-0.50;99.90
11908;DHT22;6014;47.690;9.130;2023-03-16T06:37:32;-0.50;99.90
11908;DHT22;6014;47.690;9.130;2023-03-16T06:40:00;-0.30;99.90
11908;DHT22;6014;47.690;9.130;2023-03-16T06:42:29;-0.30;99.90
11908;DHT22;6014;47.690;9.130;2023-03-16T06:44:58;-0.20;99.90
11908;DHT22;6014;47.690;9.130;2023-03-16T06:47:26;0.00;99.90
11908;DHT22;6014;47.690;9.130;2023-03-16T06:49:55;0.10;99.90
11908;DHT22;6014;47.690;9.130;2023-03-16T06:52:23;0.20;99.90
11908;DHT22;6014;47.690;9.130;2023-03-16T06:54:51;0.60;99.90
11908;DHT22;6014;47.690;9.130;2023-03-16T06:57:19;0.90;99.90
11908;DHT22;6014;47.690;9.130;2023-03-16T06:59:47;1.30;99.90
11908;DHT22;6014;47.690;9.130;2023-03-16T07:02:16;1.70;99.90
11908;DHT22;6014;47.690;9.130;2023-03-16T07:04:45;1.90;99.90
11908;DHT22;6014;47.690;9.130;2023-03-16T07:07:14;2.20;99.90
11908;DHT22;6014;47.690;9.130;2023-03-16T07:09:42;2.40;99.90
11908;DHT22;6014;47.690;9.130;2023-03-16T07:12:11;2.60;99.90
11908;DHT22;6014;47.690;9.130;2023-03-16T07:14:39;2.90;99.90
11908;DHT22;6014;47.690;9.130;2023-03-16T07:17:08;3.10;99.90
11908;DHT22;6014;47.690;9.130;2023-03-16T07:19:37;3.00;99.90
11908;DHT22;6014;47.690;9.130;2023-03-16T07:22:05;3.20;99.90
11908;DHT22;6014;47.690;9.130;2023-03-16T07:24:40;3.60;99.90
11908;DHT22;6014;47.690;9.130;2023-03-16T07:27:10;3.60;99.90
11908;DHT22;6014;47.690;9.130;2023-03-16T07:29:38;3.90;99.90
11908;DHT22;6014;47.690;9.130;2023-03-16T07:32:07;3.90;99.90
11908;DHT22;6014;47.690;9.130;2023-03-16T07:34:36;4.10;99.90
11908;DHT22;6014;47.690;9.130;2023-03-16T07:37:04;4.30;99.90
11908;DHT22;6014;47.690;9.130;2023-03-16T07:39:34;4.40;99.90
11908;DHT22;6014;47.690;9.130;2023-03-16T07:42:02;4.50;99.90
11908;DHT22;6014;47.690;9.130;2023-03-16T07:44:30;4.70;99.90
11908;DHT22;6014;47.690;9.130;2023-03-16T07:46:59;4.70;99.90
11908;DHT22;6014;47.690;9.130;2023-03-16T07:49:27;4.90;99.90
11908;DHT22;6014;47.690;9.130;2023-03-16T07:51:56;4.70;99.90
11908;DHT22;6014;47.690;9.130;2023-03-16T07:54:25;4.80;99.90
11908;DHT22;6014;47.690;9.130;2023-03-16T07:56:53;5.00;99.90
11908;DHT22;6014;47.690;9.130;2023-03-16T07:59:21;5.30;99.90
11908;DHT22;6014;47.690;9.130;2023-03-16T08:01:49;5.40;99.90
11908;DHT22;6014;47.690;9.130;2023-03-16T08:04:17;5.40;99.90
11908;DHT22;6014;47.690;9.130;2023-03-16T08:06:45;5.40;99.90
11908;DHT22;6014;47.690;9.130;2023-03-16T08:09:14;5.30;99.90
11908;DHT22;6014;47.690;9.130;2023-03-16T08:11:43;5.50;99.90
11908;DHT22;6014;47.690;9.130;2023-03-16T08:14:11;5.80;99.90
11908;DHT22;6014;47.690;9.130;2023-03-16T08:16:39;6.00;99.90
11908;DHT22;6014;47.690;9.130;2023-03-16T08:19:07;5.90;99.90
11908;DHT22;6014;47.690;9.130;2023-03-16T08:21:35;5.80;99.90
11908;DHT22;6014;47.690;9.130;2023-03-16T08:24:24;6.10;99.90
11908;DHT22;6014;47.690;9.130;2023-03-16T08:26:52;6.60;99.90
11908;DHT22;6014;47.690;9.130;2023-03-16T08:29:20;6.60;99.90
11908;DHT22;6014;47.690;9.130;2023-03-16T08:31:48;6.60;99.90
11908;DHT22;6014;47.690;9.130;2023-03-16T08:34:17;6.90;99.90
11908;DHT22;6014;47.690;9.130;2023-03-16T08:36:45;6.80;99.90
11908;DHT22;6014;47.690;9.130;2023-03-16T08:39:13;7.20;99.90
11908;DHT22;6014;47.690;9.130;2023-03-16T08:41:43;7.20;99.90
11908;DHT22;6014;47.690;9.130;2023-03-16T08:44:12;7.70;99.90
11908;DHT22;6014;47.690;9.130;2023-03-16T08:46:40;7.80;99.90
11908;DHT22;6014;47.690;9.130;2023-03-16T08:49:09;7.70;99.90
11908;DHT22;6014;47.690;9.130;2023-03-16T08:51:38;8.20;99.90
11908;DHT22;6014;47.690;9.130;2023-03-16T08:54:06;8.40;97.90
11908;DHT22;6014;47.690;9.130;2023-03-16T08:56:34;8.30;97.00
11908;DHT22;6014;47.690;9.130;2023-03-16T08:59:04;8.20;96.00
11908;DHT22;6014;47.690;9.130;2023-03-16T09:01:37;8.50;95.10
11908;DHT22;6014;47.690;9.130;2023-03-16T09:04:06;9.00;92.80
11908;DHT22;6014;47.690;9.130;2023-03-16T09:06:34;9.00;92.40
11908;DHT22;6014;47.690;9.130;2023-03-16T09:09:02;9.30;87.00
11908;DHT22;6014;47.690;9.130;2023-03-16T09:11:30;9.20;83.40
11908;DHT22;6014;47.690;9.130;2023-03-16T09:13:59;9.60;80.20
11908;DHT22;6014;47.690;9.130;2023-03-16T09:16:28;9.90;78.40
11908;DHT22;6014;47.690;9.130;2023-03-16T09:18:57;9.70;69.40
11908;DHT22;6014;47.690;9.130;2023-03-16T09:21:24;9.70;68.60
11908;DHT22;6014;47.690;9.130;2023-03-16T09:23:53;9.90;66.40
11908;DHT22;6014;47.690;9.130;2023-03-16T09:26:21;9.70;69.70
11908;DHT22;6014;47.690;9.130;2023-03-16T09:28:49;9.60;69.30
11908;DHT22;6014;47.690;9.130;2023-03-16T09:31:18;9.70;65.70
11908;DHT22;6014;47.690;9.130;2023-03-16T09:33:48;9.40;63.90
11908;DHT22;6014;47.690;9.130;2023-03-16T09:36:16;10.50;58.10
11908;DHT22;6014;47.690;9.130;2023-03-16T09:38:44;10.20;55.60
11908;DHT22;6014;47.690;9.130;2023-03-16T09:41:34;10.40;52.40
11908;DHT22;6014;47.690;9.130;2023-03-16T09:44:15;10.60;53.50
11908;DHT22;6014;47.690;9.130;2023-03-16T09:46:48;10.60;48.00
11908;DHT22;6014;47.690;9.130;2023-03-16T09:49:19;10.80;45.00
11908;DHT22;6014;47.690;9.130;2023-03-16T09:51:51;10.40;40.00
11908;DHT22;6014;47.690;9.130;2023-03-16T09:54:28;10.80;42.60
11908;DHT22;6014;47.690;9.130;2023-03-16T09:56:58;10.70;44.30
11908;DHT22;6014;47.690;9.130;2023-03-16T09:59:27;10.30;44.20
11908;DHT22;6014;47.690;9.130;2023-03-16T10:02:04;10.70;43.20
11908;DHT22;6014;47.690;9.130;2023-03-16T10:04:42;11.00;41.30
11908;DHT22;6014;47.690;9.130;2023-03-16T10:07:24;10.70;41.40
11908;DHT22;6014;47.690;9.130;2023-03-16T10:09:58;10.60;42.00
11908;DHT22;6014;47.690;9.130;2023-03-16T10:12:34;10.50;40.30
11908;DHT22;6014;47.690;9.130;2023-03-16T10:15:08;10.70;41.40
11908;DHT22;6014;47.690;9.130;2023-03-16T10:17:40;10.40;40.50
11908;DHT22;6014;47.690;9.130;2023-03-16T10:20:15;9.70;42.40
11908;DHT22;6014;47.690;9.130;2023-03-16T10:22:44;9.80;43.00
11908;DHT22;6014;47.690;9.130;2023-03-16T10:25:19;9.90;47.90
11908;DHT22;6014;47.690;9.130;2023-03-16T10:27:49;10.50;44.60
11908;DHT22;6014;47.690;9.130;2023-03-16T10:30:23;10.30;41.80
11908;DHT22;6014;47.690;9.130;2023-03-16T10:32:55;10.70;39.60
11908;DHT22;6014;47.690;9.130;2023-03-16T10:35:31;10.90;39.30
11908;DHT22;6014;47.690;9.130;2023-03-16T10:38:07;11.30;36.10
11908;DHT22;6014;47.690;9.130;2023-03-16T10:40:36;10.70;34.70
11908;DHT22;6014;47.690;9.130;2023-03-16T10:43:06;11.10;35.00
11908;DHT22;6014;47.690;9.130;2023-03-16T10:45:41;11.50;36.00
11908;DHT22;6014;47.690;9.130;2023-03-16T10:48:13;11.40;35.60
11908;DHT22;6014;47.690;9.130;2023-03-16T10:50:43;11.30;36.20
11908;DHT22;6014;47.690;9.130;2023-03-16T10:53:18;10.80;34.70
11908;DHT22;6014;47.690;9.130;2023-03-16T10:55:48;11.00;33.80
11908;DHT22;6014;47.690;9.130;2023-03-16T10:58:24;10.70;31.40
11908;DHT22;6014;47.690;9.130;2023-03-16T11:00:56;10.90;32.30
11908;DHT22;6014;47.690;9.130;2023-03-16T11:03:26;11.10;32.00
11908;DHT22;6014;47.690;9.130;2023-03-16T11:06:01;10.90;30.00
11908;DHT22;6014;47.690;9.130;2023-03-16T11:08:32;10.80;30.00
11908;DHT22;6014;47.690;9.130;2023-03-16T11:11:07;11.00;30.90
11908;DHT22;6014;47.690;9.130;2023-03-16T11:13:43;11.10;31.40
11908;DHT22;6014;47.690;9.130;2023-03-16T11:16:20;11.30;29.50
11908;DHT22;6014;47.690;9.130;2023-03-16T11:18:53;11.20;31.00
11908;DHT22;6014;47.690;9.130;2023-03-16T11:21:30;11.40;30.00
11908;DHT22;6014;47.690;9.130;2023-03-16T11:24:02;11.30;24.50
11908;DHT22;6014;47.690;9.130;2023-03-16T11:26:32;11.20;24.60
11908;DHT22;6014;47.690;9.130;2023-03-16T11:29:06;11.20;23.80
11908;DHT22;6014;47.690;9.130;2023-03-16T11:31:42;11.10;23.30
11908;DHT22;6014;47.690;9.130;2023-03-16T11:34:16;10.60;24.20
11908;DHT22;6014;47.690;9.130;2023-03-16T11:36:49;10.40;22.70
11908;DHT22;6014;47.690;9.130;2023-03-16T11:39:32;10.50;24.00
11908;DHT22;6014;47.690;9.130;2023-03-16T11:44:59;11.30;23.20
11908;DHT22;6014;47.690;9.130;2023-03-16T11:47:44;11.20;22.80
11908;DHT22;6014;47.690;9.130;2023-03-16T11:50:21;11.00;21.20
11908;DHT22;6014;47.690;9.130;2023-03-16T11:52:58;11.20;21.30
11908;DHT22;6014;47.690;9.130;2023-03-16T11:55:36;11.90;23.30
11908;DHT22;6014;47.690;9.130;2023-03-16T11:58:23;11.80;21.40
11908;DHT22;6014;47.690;9.130;2023-03-16T12:00:59;11.30;21.00
11908;DHT22;6014;47.690;9.130;2023-03-16T12:03:51;11.50;21.90
11908;DHT22;6014;47.690;9.130;2023-03-16T12:06:36;11.20;20.90
11908;DHT22;6014;47.690;9.130;2023-03-16T12:09:18;11.30;21.90
11908;DHT22;6014;47.690;9.130;2023-03-16T12:11:52;11.60;21.50
11908;DHT22;6014;47.690;9.130;2023-03-16T12:14:24;11.50;21.80
11908;DHT22;6014;47.690;9.130;2023-03-16T12:16:57;11.70;21.70
11908;DHT22;6014;47.690;9.130;2023-03-16T12:19:36;12.30;22.40
11908;DHT22;6014;47.690;9.130;2023-03-16T12:22:14;12.50;21.90
11908;DHT22;6014;47.690;9.130;2023-03-16T12:24:46;11.90;21.50
11908;DHT22;6014;47.690;9.130;2023-03-16T12:27:16;11.80;21.60
11908;DHT22;6014;47.690;9.130;2023-03-16T12:29:54;11.80;22.00
11908;DHT22;6014;47.690;9.130;2023-03-16T12:32:33;11.50;21.70
11908;DHT22;6014;47.690;9.130;2023-03-16T12:35:18;11.20;21.90
11908;DHT22;6014;47.690;9.130;2023-03-16T12:37:57;11.40;21.70
11908;DHT22;6014;47.690;9.130;2023-03-16T12:40:33;11.40;20.70
11908;DHT22;6014;47.690;9.130;2023-03-16T12:43:19;11.80;21.40
11908;DHT22;6014;47.690;9.130;2023-03-16T12:45:56;12.00;21.40
11908;DHT22;6014;47.690;9.130;2023-03-16T12:48:27;12.30;20.60
11908;DHT22;6014;47.690;9.130;2023-03-16T12:50:58;12.60;19.90
11908;DHT22;6014;47.690;9.130;2023-03-16T12:53:38;12.40;19.40
11908;DHT22;6014;47.690;9.130;2023-03-16T12:56:11;12.60;19.10
11908;DHT22;6014;47.690;9.130;2023-03-16T12:58:43;12.50;18.70
11908;DHT22;6014;47.690;9.130;2023-03-16T13:01:12;12.60;19.20
11908;DHT22;6014;47.690;9.130;2023-03-16T13:03:41;12.70;18.90
11908;DHT22;6014;47.690;9.130;2023-03-16T13:06:17;12.90;19.10
11908;DHT22;6014;47.690;9.130;2023-03-16T13:08:59;13.00;19.40
11908;DHT22;6014;47.690;9.130;2023-03-16T13:11:39;13.20;18.00
11908;DHT22;6014;47.690;9.130;2023-03-16T13:14:08;13.30;18.20
11908;DHT22;6014;47.690;9.130;2023-03-16T13:16:38;13.50;17.40
11908;DHT22;6014;47.690;9.130;2023-03-16T13:19:31;13.60;17.10
11908;DHT22;6014;47.690;9.130;2023-03-16T13:22:18;13.40;17.30
11908;DHT22;6014;47.690;9.130;2023-03-16T13:24:51;13.90;17.70
11908;DHT22;6014;47.690;9.130;2023-03-16T13:27:25;13.50;17.20
11908;DHT22;6014;47.690;9.130;2023-03-16T13:29:56;13.40;17.50
11908;DHT22;6014;47.690;9.130;2023-03-16T13:32:31;13.60;17.40
11908;DHT22;6014;47.690;9.130;2023-03-16T13:35:01;13.90;16.70
11908;DHT22;6014;47.690;9.130;2023-03-16T13:37:32;13.70;16.80
11908;DHT22;6014;47.690;9.130;2023-03-16T13:40:01;13.70;17.20
11908;DHT22;6014;47.690;9.130;2023-03-16T13:42:32;13.70;16.80
11908;DHT22;6014;47.690;9.130;2023-03-16T13:45:12;13.50;17.00
11908;DHT22;6014;47.690;9.130;2023-03-16T13:47:42;13.50;16.80
11908;DHT22;6014;47.690;9.130;2023-03-16T13:50:12;13.70;16.80
11908;DHT22;6014;47.690;9.130;2023-03-16T13:52:41;13.90;16.40
11908;DHT22;6014;47.690;9.130;2023-03-16T13:55:14;14.00;16.40
11908;DHT22;6014;47.690;9.130;2023-03-16T13:57:46;14.10;15.80
11908;DHT22;6014;47.690;9.130;2023-03-16T14:00:17;14.10;15.80
11908;DHT22;6014;47.690;9.130;2023-03-16T14:02:51;14.10;16.20
11908;DHT22;6014;47.690;9.130;2023-03-16T14:05:22;14.10;16.30
11908;DHT22;6014;47.690;9.130;2023-03-16T14:07:53;14.30;14.90
11908;DHT22;6014;47.690;9.130;2023-03-16T14:10:22;14.60;15.80
11908;DHT22;6014;47.690;9.130;2023-03-16T14:12:54;14.50;14.70
11908;DHT22;6014;47.690;9.130;2023-03-16T14:15:25;14.40;14.20
11908;DHT22;6014;47.690;9.130;2023-03-16T14:18:07;14.50;13.40
11908;DHT22;6014;47.690;9.130;2023-03-16T14:20:39;14.80;13.80
11908;DHT22;6014;47.690;9.130;2023-03-16T14:23:16;14.70;13.40
11908;DHT22;6014;47.690;9.130;2023-03-16T14:25:46;14.70;12.70
11908;DHT22;6014;47.690;9.130;2023-03-16T14:28:18;14.70;12.10
11908;DHT22;6014;47.690;9.130;2023-03-16T14:30:53;14.60;11.50
11908;DHT22;6014;47.690;9.130;2023-03-16T14:33:27;14.10;11.40
11908;DHT22;6014;47.690;9.130;2023-03-16T14:35:58;14.10;12.30
11908;DHT22;6014;47.690;9.130;2023-03-16T14:38:29;14.10;12.40
11908;DHT22;6014;47.690;9.130;2023-03-16T14:41:02;14.60;11.90
11908;DHT22;6014;47.690;9.130;2023-03-16T14:43:34;14.30;11.30
11908;DHT22;6014;47.690;9.130;2023-03-16T14:46:04;14.30;11.50
11908;DHT22;6014;47.690;9.130;2023-03-16T14:48:33;14.20;11.30
11908;DHT22;6014;47.690;9.130;2023-03-16T14:51:02;14.50;11.40
11908;DHT22;6014;47.690;9.130;2023-03-16T14:53:32;14.30;11.50
11908;DHT22;6014;47.690;9.130;2023-03-16T14:56:00;14.70;12.80
11908;DHT22;6014;47.690;9.130;2023-03-16T14:58:28;15.10;11.70
11908;DHT22;6014;47.690;9.130;2023-03-16T15:00:57;14.80;11.00
11908;DHT22;6014;47.690;9.130;2023-03-16T15:03:31;14.70;10.90
11908;DHT22;6014;47.690;9.130;2023-03-16T15:06:00;15.00;11.30
11908;DHT22;6014;47.690;9.130;2023-03-16T15:08:30;14.60;12.20
11908;DHT22;6014;47.690;9.130;2023-03-16T15:11:01;14.30;11.20
11908;DHT22;6014;47.690;9.130;2023-03-16T15:13:31;14.30;11.40
11908;DHT22;6014;47.690;9.130;2023-03-16T15:16:20;14.70;11.50
11908;DHT22;6014;47.690;9.130;2023-03-16T15:18:49;15.20;10.30
11908;DHT22;6014;47.690;9.130;2023-03-16T15:21:19;15.20;11.20
11908;DHT22;6014;47.690;9.130;2023-03-16T15:23:50;15.60;9.90
11908;DHT22;6014;47.690;9.130;2023-03-16T15:26:22;15.60;8.60
11908;DHT22;6014;47.690;9.130;2023-03-16T15:28:52;16.30;7.90
11908;DHT22;6014;47.690;9.130;2023-03-16T15:31:21;16.70;6.90
11908;DHT22;6014;47.690;9.130;2023-03-16T15:33:49;16.80;6.70
11908;DHT22;6014;47.690;9.130;2023-03-16T15:36:19;16.90;7.40
11908;DHT22;6014;47.690;9.130;2023-03-16T15:38:50;16.60;9.00
11908;DHT22;6014;47.690;9.130;2023-03-16T15:41:19;16.10;8.10
11908;DHT22;6014;47.690;9.130;2023-03-16T15:43:47;15.70;8.90
11908;DHT22;6014;47.690;9.130;2023-03-16T15:46:17;15.70;9.50
11908;DHT22;6014;47.690;9.130;2023-03-16T15:48:47;15.80;9.40
11908;DHT22;6014;47.690;9.130;2023-03-16T15:51:19;16.00;9.90
11908;DHT22;6014;47.690;9.130;2023-03-16T15:53:50;16.10;9.10
11908;DHT22;6014;47.690;9.130;2023-03-16T15:56:21;15.60;9.30
11908;DHT22;6014;47.690;9.130;2023-03-16T15:58:56;15.60;9.80
11908;DHT22;6014;47.690;9.130;2023-03-16T16:01:27;15.40;9.70
11908;DHT22;6014;47.690;9.130;2023-03-16T16:03:59;15.30;9.20
11908;DHT22;6014;47.690;9.130;2023-03-16T16:06:29;14.80;9.50
11908;DHT22;6014;47.690;9.130;2023-03-16T16:08:57;14.50;10.20
11908;DHT22;6014;47.690;9.130;2023-03-16T16:11:27;14.50;9.90
11908;DHT22;6014;47.690;9.130;2023-03-16T16:13:56;14.30;10.10
11908;DHT22;6014;47.690;9.130;2023-03-16T16:16:26;14.00;10.30
11908;DHT22;6014;47.690;9.130;2023-03-16T16:18:55;13.60;10.50